Terminal Aerodrome Forecast
Issued by NWS

Home | Current Version | Previous Version | Text Only | Print | Product List | Glossary Off
Versions: 1 2 3 4 5 6 7 8 9 10 11 12 13 14 15 16 17 18 19 20 21

000
FTUS43 KGRB 181727
TAFRHI
TAF
KRHI 181727Z 1818/1918 23011G18KT P6SM SKC
     FM182200 23006KT P6SM SKC
     FM190600 23004KT 4SM BR SKC
      TEMPO 1907/1909 BKN006
     FM190900 23004KT 3SM BR BKN006
      TEMPO 1910/1914 1 1/2SM BR OVC003
     FM191600 22006KT P6SM BKN008=

USA.gov is the U.S. government's official web portal to all federal, state and local government web resources and services.